Time;durP1;ratioP1;P1;durP2;ratioP2;P2;SDS_P1;SDS_P2;PMS_P1;PMS_P2;Temp;Humidity;BMP_temperature;BMP_pressure;BME280_temperature;BME280_humidity;BME280_pressure;Samples;Min_cycle;Max_cycle;Signal;HPM_P1;HPM_P2
2021/07/05 00:01:06;;;;;;;;;;;21.50;72.10;;;;;;4975071;28;1110;-74
2021/07/05 00:03:31;;;;;;;;;;;21.50;72.10;;;;;;4990102;28;1082;-73
2021/07/05 00:05:57;;;;;;;;;;;21.50;72.10;;;;;;4992514;28;1346;-74
2021/07/05 00:08:22;;;;;;;;;;;21.50;72.10;;;;;;4991681;28;1149;-74
2021/07/05 00:10:47;;;;;;;;;;;21.50;72.10;;;;;;4991777;28;1213;-73
2021/07/05 00:13:13;;;;;;;;;;;21.40;72.10;;;;;;4991765;28;1907;-75
2021/07/05 00:15:38;;;;;;;;;;;21.50;72.10;;;;;;4992414;28;1251;-74
2021/07/05 00:18:05;;;;;;;;;;;21.50;72.20;;;;;;4975304;28;1208;-73
2021/07/05 00:20:31;;;;;;;;;;;21.40;72.10;;;;;;4975530;28;1212;-74
2021/07/05 00:22:56;;;;;;;;;;;21.40;72.10;;;;;;4992196;28;1038;-73
2021/07/05 00:25:22;;;;;;;;;;;21.40;72.20;;;;;;4974708;28;1299;-73
2021/07/05 00:27:47;;;;;;;;;;;21.40;72.20;;;;;;4992304;28;1061;-75
2021/07/05 00:30:15;;;;;;;;;;;21.50;72.20;;;;;;4992866;28;1137;-75
2021/07/05 00:32:40;;;;;;;;;;;21.40;72.20;;;;;;4962938;28;1907;-75
2021/07/05 00:35:06;;;;;;;;;;;21.40;72.20;;;;;;4995230;28;1275;-73
2021/07/05 00:37:31;;;;;;;;;;;21.40;72.20;;;;;;4996298;28;1199;-73
2021/07/05 00:39:57;;;;;;;;;;;21.50;72.20;;;;;;4977938;28;1054;-72
2021/07/05 00:42:22;;;;;;;;;;;21.50;72.30;;;;;;4996236;28;1235;-73
2021/07/05 00:44:47;;;;;;;;;;;21.50;72.30;;;;;;4995127;28;1269;-73
2021/07/05 00:47:13;;;;;;;;;;;21.50;72.30;;;;;;4995975;28;1046;-72
2021/07/05 00:49:38;;;;;;;;;;;21.50;72.30;;;;;;4995384;28;1077;-73
2021/07/05 00:52:06;;;;;;;;;;;21.40;72.20;;;;;;4995310;28;1955;-73
2021/07/05 00:54:32;;;;;;;;;;;21.40;72.20;;;;;;4977611;28;1437;-73
2021/07/05 00:56:57;;;;;;;;;;;21.40;72.20;;;;;;4978249;28;1201;-72
2021/07/05 00:59:23;;;;;;;;;;;21.50;72.30;;;;;;4995210;28;1105;-75
2021/07/05 01:01:48;;;;;;;;;;;21.40;72.30;;;;;;4977932;28;1078;-74
2021/07/05 01:04:14;;;;;;;;;;;21.40;72.20;;;;;;4995365;28;1070;-74
2021/07/05 01:06:39;;;;;;;;;;;21.50;72.30;;;;;;4995563;28;1301;-74
2021/07/05 01:09:04;;;;;;;;;;;21.40;72.30;;;;;;4995336;28;1089;-75
2021/07/05 01:11:30;;;;;;;;;;;21.40;72.30;;;;;;4977605;28;1961;-74
2021/07/05 01:13:55;;;;;;;;;;;21.40;72.30;;;;;;4977307;28;1142;-75
2021/07/05 01:16:21;;;;;;;;;;;21.40;72.30;;;;;;4977636;28;1340;-76
2021/07/05 01:18:46;;;;;;;;;;;21.40;72.30;;;;;;4977558;28;1208;-76
2021/07/05 01:21:12;;;;;;;;;;;21.40;72.30;;;;;;4994968;28;1085;-76
2021/07/05 01:23:37;;;;;;;;;;;21.40;72.30;;;;;;4977069;28;1161;-74
2021/07/05 01:26:02;;;;;;;;;;;21.40;72.30;;;;;;4994727;28;1352;-75
2021/07/05 01:28:28;;;;;;;;;;;21.40;72.30;;;;;;4961290;28;1102;-76
2021/07/05 01:30:55;;;;;;;;;;;21.40;72.30;;;;;;4977541;28;1078;-76
2021/07/05 01:33:20;;;;;;;;;;;21.40;72.30;;;;;;4976743;28;1914;-75
2021/07/05 01:35:46;;;;;;;;;;;21.40;72.40;;;;;;4995174;28;1277;-73
2021/07/05 01:38:13;;;;;;;;;;;21.40;72.30;;;;;;4976835;28;1326;-72
2021/07/05 01:40:38;;;;;;;;;;;21.40;72.30;;;;;;4977914;28;1159;-75
2021/07/05 01:43:04;;;;;;;;;;;21.40;72.40;;;;;;4975965;28;1208;-75
2021/07/05 01:45:30;;;;;;;;;;;21.40;72.30;;;;;;4976936;28;1544;-74
2021/07/05 01:47:56;;;;;;;;;;;21.40;72.30;;;;;;4994396;28;1098;-77
2021/07/05 01:50:21;;;;;;;;;;;21.40;72.30;;;;;;4961347;28;1128;-76
2021/07/05 01:52:47;;;;;;;;;;;21.40;72.30;;;;;;4960570;28;1907;-72
2021/07/05 01:55:13;;;;;;;;;;;21.40;72.40;;;;;;4961173;28;1412;-74
2021/07/05 01:57:38;;;;;;;;;;;21.40;72.40;;;;;;4976884;28;1564;-74
2021/07/05 02:00:16;;;;;;;;;;;21.40;72.30;;;;;;4994223;28;923;-73
2021/07/05 02:02:42;;;;;;;;;;;21.40;72.40;;;;;;4960295;28;1144;-73
2021/07/05 02:05:08;;;;;;;;;;;21.40;72.40;;;;;;4993776;28;1232;-74
2021/07/05 02:07:34;;;;;;;;;;;21.40;72.40;;;;;;4994375;28;1227;-73
2021/07/05 02:09:59;;;;;;;;;;;21.40;72.40;;;;;;4994103;28;1078;-74
2021/07/05 02:12:26;;;;;;;;;;;21.40;72.40;;;;;;4994128;28;1957;-73
2021/07/05 02:14:51;;;;;;;;;;;21.40;72.40;;;;;;4993435;28;1259;-74
2021/07/05 02:17:17;;;;;;;;;;;21.40;73.10;;;;;;4994513;28;1184;-75
2021/07/05 02:19:42;;;;;;;;;;;21.40;72.40;;;;;;4994021;28;1061;-74
2021/07/05 02:22:08;;;;;;;;;;;21.40;72.40;;;;;;4976942;28;1193;-73
2021/07/05 02:24:33;;;;;;;;;;;21.40;72.40;;;;;;4991810;28;1330;-72
2021/07/05 02:26:59;;;;;;;;;;;21.40;72.40;;;;;;4988604;28;1283;-72
2021/07/05 02:29:24;;;;;;;;;;;21.40;72.40;;;;;;4986944;28;1249;-74
2021/07/05 02:31:49;;;;;;;;;;;21.40;72.40;;;;;;4984972;28;1993;-73
2021/07/05 02:34:15;;;;;;;;;;;21.40;72.40;;;;;;4987287;28;1205;-73
2021/07/05 02:36:40;;;;;;;;;;;21.40;72.40;;;;;;4992430;28;1370;-75
2021/07/05 02:39:06;;;;;;;;;;;21.40;72.40;;;;;;4993321;28;1065;-74
2021/07/05 02:41:31;;;;;;;;;;;21.40;72.40;;;;;;4992609;28;1094;-73
2021/07/05 02:43:56;;;;;;;;;;;21.40;72.40;;;;;;4992932;28;1069;-72
2021/07/05 02:46:22;;;;;;;;;;;21.40;72.40;;;;;;4993857;28;1346;-73
2021/07/05 02:48:47;;;;;;;;;;;21.40;72.40;;;;;;4976082;28;1228;-73
2021/07/05 02:51:13;;;;;;;;;;;21.40;72.40;;;;;;4976464;28;1072;-74
2021/07/05 02:53:38;;;;;;;;;;;21.40;72.40;;;;;;4992400;28;1954;-73
2021/07/05 02:56:04;;;;;;;;;;;21.40;72.40;;;;;;4993797;28;1281;-73
2021/07/05 02:58:29;;;;;;;;;;;21.40;72.40;;;;;;4975962;28;1480;-73
2021/07/05 03:00:57;;;;;;;;;;;21.40;72.40;;;;;;4975815;28;1354;-73
2021/07/05 03:03:22;;;;;;;;;;;21.40;72.40;;;;;;4975156;28;1102;-73
2021/07/05 03:05:47;;;;;;;;;;;21.40;72.40;;;;;;4993472;28;1273;-73
2021/07/05 03:08:13;;;;;;;;;;;21.40;72.40;;;;;;4992279;28;1058;-73
2021/07/05 03:10:39;;;;;;;;;;;21.40;72.40;;;;;;4993446;28;1093;-72
2021/07/05 03:13:05;;;;;;;;;;;21.40;73.20;;;;;;4992171;28;1969;-73
2021/07/05 03:15:30;;;;;;;;;;;21.40;72.40;;;;;;4975878;28;1296;-73
2021/07/05 03:17:55;;;;;;;;;;;21.40;72.40;;;;;;4975888;28;1082;-73
2021/07/05 03:20:23;;;;;;;;;;;21.40;72.40;;;;;;4993237;28;1136;-73
2021/07/05 03:22:49;;;;;;;;;;;21.40;72.40;;;;;;4992653;28;1148;-73
2021/07/05 03:25:15;;;;;;;;;;;21.40;72.40;;;;;;4992966;28;1369;-73
2021/07/05 03:27:40;;;;;;;;;;;21.40;72.40;;;;;;4992978;28;1062;-73
2021/07/05 03:30:06;;;;;;;;;;;21.40;72.40;;;;;;4993083;28;1042;-73
2021/07/05 03:32:32;;;;;;;;;;;21.40;72.40;;;;;;4992602;28;1910;-73
2021/07/05 03:34:57;;;;;;;;;;;21.40;72.40;;;;;;4975129;28;1276;-73
2021/07/05 03:37:23;;;;;;;;;;;21.40;72.40;;;;;;4993171;28;1078;-74
2021/07/05 03:39:48;;;;;;;;;;;21.40;72.40;;;;;;4992404;28;1109;-74
2021/07/05 03:42:14;;;;;;;;;;;21.40;72.40;;;;;;4992848;28;1198;-72
2021/07/05 03:44:39;;;;;;;;;;;21.40;72.40;;;;;;4992120;28;1097;-74
2021/07/05 03:47:04;;;;;;;;;;;21.40;72.40;;;;;;4994083;28;1285;-73
2021/07/05 03:49:30;;;;;;;;;;;21.40;72.50;;;;;;4992510;28;1090;-73
2021/07/05 03:51:55;;;;;;;;;;;21.40;72.40;;;;;;4992890;28;1894;-73
2021/07/05 03:54:21;;;;;;;;;;;21.40;72.40;;;;;;4991577;28;1030;-73
2021/07/05 03:56:46;;;;;;;;;;;21.40;72.50;;;;;;4992480;28;1295;-73
2021/07/05 03:59:12;;;;;;;;;;;21.40;72.40;;;;;;4975293;28;1153;-73
2021/07/05 04:01:37;;;;;;;;;;;21.40;72.40;;;;;;4992679;28;1069;-73
2021/07/05 04:04:02;;;;;;;;;;;21.40;72.40;;;;;;4974793;28;1070;-73
2021/07/05 04:06:28;;;;;;;;;;;21.40;72.50;;;;;;4994677;28;1214;-73
2021/07/05 04:08:55;;;;;;;;;;;21.40;72.50;;;;;;4996598;28;1081;-73
2021/07/05 04:11:21;;;;;;;;;;;21.40;72.40;;;;;;4979136;28;1279;-73
2021/07/05 04:13:46;;;;;;;;;;;21.40;72.40;;;;;;4995970;28;1906;-73
2021/07/05 04:16:12;;;;;;;;;;;21.40;72.40;;;;;;4978888;28;1250;-73
2021/07/05 04:18:37;;;;;;;;;;;21.40;72.50;;;;;;4996362;28;1145;-71
2021/07/05 04:21:03;;;;;;;;;;;21.40;72.40;;;;;;4996540;28;1124;-73
2021/07/05 04:23:28;;;;;;;;;;;21.40;72.50;;;;;;4995735;28;1125;-73
2021/07/05 04:25:54;;;;;;;;;;;21.40;72.50;;;;;;4996241;28;1381;-73
2021/07/05 04:28:20;;;;;;;;;;;21.40;72.50;;;;;;4996233;28;1137;-73
2021/07/05 04:30:45;;;;;;;;;;;21.40;72.50;;;;;;4996745;28;1132;-73
2021/07/05 04:33:11;;;;;;;;;;;21.40;72.50;;;;;;4995739;28;1968;-73
2021/07/05 04:35:36;;;;;;;;;;;21.40;72.50;;;;;;4996225;28;1265;-73
2021/07/05 04:38:02;;;;;;;;;;;21.40;72.50;;;;;;4978632;28;1106;-73
2021/07/05 04:40:38;;;;;;;;;;;21.40;72.50;;;;;;4978904;28;1193;-73
2021/07/05 04:43:04;;;;;;;;;;;21.40;72.50;;;;;;4978398;28;1240;-73
2021/07/05 04:45:29;;;;;;;;;;;21.40;72.50;;;;;;4978303;28;1296;-73
2021/07/05 04:47:55;;;;;;;;;;;21.40;72.50;;;;;;4996186;28;1164;-73
2021/07/05 04:50:20;;;;;;;;;;;21.40;72.50;;;;;;4978498;28;1121;-72
2021/07/05 04:52:46;;;;;;;;;;;21.40;72.50;;;;;;4978303;28;1923;-73
2021/07/05 04:55:12;;;;;;;;;;;21.40;72.50;;;;;;4977375;28;1367;-73
2021/07/05 04:57:38;;;;;;;;;;;21.40;72.50;;;;;;4996143;28;1121;-73
2021/07/05 05:00:04;;;;;;;;;;;21.40;72.50;;;;;;4995571;28;1085;-72
2021/07/05 05:02:30;;;;;;;;;;;21.40;72.50;;;;;;4995576;28;1132;-73
2021/07/05 05:04:55;;;;;;;;;;;21.40;73.20;;;;;;4994806;28;2662;-73
2021/07/05 05:07:21;;;;;;;;;;;21.40;72.50;;;;;;4995486;28;1046;-73
2021/07/05 05:09:46;;;;;;;;;;;21.40;72.50;;;;;;4978029;28;1074;-73
2021/07/05 05:12:12;;;;;;;;;;;21.40;72.50;;;;;;4995398;28;1903;-73
2021/07/05 05:14:37;;;;;;;;;;;21.40;72.50;;;;;;4994658;28;964;-73
2021/07/05 05:17:03;;;;;;;;;;;21.40;72.50;;;;;;4994671;28;1240;-73
2021/07/05 05:19:29;;;;;;;;;;;21.40;72.50;;;;;;4978110;28;1078;-73
2021/07/05 05:21:54;;;;;;;;;;;21.40;72.50;;;;;;4995315;28;1101;-73
2021/07/05 05:24:20;;;;;;;;;;;21.40;72.60;;;;;;4977199;28;1054;-73
2021/07/05 05:26:45;;;;;;;;;;;21.40;72.60;;;;;;4994227;28;1285;-73
2021/07/05 05:29:10;;;;;;;;;;;21.40;72.50;;;;;;4977689;28;1187;-74
2021/07/05 05:31:36;;;;;;;;;;;21.40;72.50;;;;;;4995039;28;1968;-73
2021/07/05 05:34:02;;;;;;;;;;;21.40;72.60;;;;;;4994555;28;1078;-73
2021/07/05 05:36:27;;;;;;;;;;;21.40;72.50;;;;;;4977845;28;1236;-73
2021/07/05 05:38:52;;;;;;;;;;;21.40;72.50;;;;;;4994696;28;1140;-73
2021/07/05 05:41:18;;;;;;;;;;;21.40;72.60;;;;;;4977342;28;1090;-73
2021/07/05 05:43:43;;;;;;;;;;;21.40;72.60;;;;;;4994643;28;1042;-73
2021/07/05 05:46:15;;;;;;;;;;;21.40;72.60;;;;;;4994582;28;1266;-73
2021/07/05 05:48:41;;;;;;;;;;;21.40;72.60;;;;;;4994968;28;1026;-73
2021/07/05 05:51:06;;;;;;;;;;;21.40;72.60;;;;;;4977682;28;1086;-73
2021/07/05 05:53:32;;;;;;;;;;;21.40;72.60;;;;;;4993762;28;1903;-73
2021/07/05 05:55:57;;;;;;;;;;;21.40;72.60;;;;;;4994320;28;1299;-73
2021/07/05 05:58:22;;;;;;;;;;;21.40;72.60;;;;;;4977531;28;1070;-72
2021/07/05 06:00:48;;;;;;;;;;;21.40;72.60;;;;;;4977250;28;1114;-73
2021/07/05 06:03:13;;;;;;;;;;;21.40;72.60;;;;;;4994252;28;1002;-73
2021/07/05 06:05:39;;;;;;;;;;;21.40;72.60;;;;;;4976675;28;1388;-73
2021/07/05 06:08:04;;;;;;;;;;;21.40;72.60;;;;;;4976858;28;1213;-73
2021/07/05 06:10:29;;;;;;;;;;;21.40;72.60;;;;;;4994458;28;1109;-73
2021/07/05 06:12:56;;;;;;;;;;;21.40;72.60;;;;;;4994089;28;1969;-73
2021/07/05 06:15:23;;;;;;;;;;;21.40;72.50;;;;;;4976352;28;1383;-74
2021/07/05 06:17:48;;;;;;;;;;;21.40;72.60;;;;;;4977154;28;1090;-73
2021/07/05 06:20:14;;;;;;;;;;;21.40;72.60;;;;;;4976900;28;1161;-73
2021/07/05 06:22:42;;;;;;;;;;;21.40;72.60;;;;;;4980348;28;1948;-71
2021/07/05 06:25:08;;;;;;;;;;;21.40;72.70;;;;;;4973847;28;2059;-70
2021/07/05 06:27:33;;;;;;;;;;;21.40;72.70;;;;;;4975462;28;1081;-70
2021/07/05 06:29:59;;;;;;;;;;;21.40;72.60;;;;;;4990071;28;1127;-70
2021/07/05 06:32:24;;;;;;;;;;;21.40;72.70;;;;;;4993123;28;1965;-71
2021/07/05 06:34:50;;;;;;;;;;;21.40;72.70;;;;;;4992297;28;1283;-72
2021/07/05 06:37:15;;;;;;;;;;;21.40;72.70;;;;;;4975144;28;1217;-72
2021/07/05 06:39:40;;;;;;;;;;;21.40;72.70;;;;;;4992730;28;1105;-72
2021/07/05 06:42:06;;;;;;;;;;;21.40;72.70;;;;;;4975256;28;1798;-76
2021/07/05 06:44:31;;;;;;;;;;;21.40;72.60;;;;;;4987518;28;2063;-76
2021/07/05 06:46:57;;;;;;;;;;;21.40;72.60;;;;;;4986157;28;1896;-74
2021/07/05 06:49:22;;;;;;;;;;;21.40;72.60;;;;;;4991432;28;932;-73
2021/07/05 06:51:49;;;;;;;;;;;21.40;72.60;;;;;;4992330;28;1914;-73
2021/07/05 06:54:14;;;;;;;;;;;21.40;72.70;;;;;;4992417;28;1121;-73
2021/07/05 06:56:40;;;;;;;;;;;21.40;72.60;;;;;;4975585;28;1397;-72
2021/07/05 06:59:05;;;;;;;;;;;21.40;72.70;;;;;;4976199;28;1708;-72
2021/07/05 07:01:31;;;;;;;;;;;21.40;72.80;;;;;;4976295;28;1450;-72
2021/07/05 07:03:57;;;;;;;;;;;21.40;72.70;;;;;;4975827;28;1393;-73
2021/07/05 07:06:22;;;;;;;;;;;21.40;72.80;;;;;;5002350;28;1216;-73
2021/07/05 07:08:48;;;;;;;;;;;21.40;72.80;;;;;;4976058;28;1129;-73
2021/07/05 07:11:13;;;;;;;;;;;21.40;72.80;;;;;;4993177;28;1196;-73
2021/07/05 07:13:39;;;;;;;;;;;21.40;72.80;;;;;;4959150;28;1968;-73
2021/07/05 07:16:05;;;;;;;;;;;21.40;72.80;;;;;;4973996;28;2046;-72
2021/07/05 07:20:56;;;;;;;;;;;21.40;72.80;;;;;;4975926;28;1191;-73
2021/07/05 07:23:22;;;;;;;;;;;21.40;72.80;;;;;;4992269;28;1042;-73
2021/07/05 07:25:47;;;;;;;;;;;21.40;72.90;;;;;;4975213;28;1384;-73
2021/07/05 07:28:13;;;;;;;;;;;21.40;72.90;;;;;;4992691;28;1097;-73
2021/07/05 07:30:38;;;;;;;;;;;21.40;72.80;;;;;;4992242;28;1069;-73
2021/07/05 07:33:03;;;;;;;;;;;21.40;72.70;;;;;;4975407;28;2018;-73
2021/07/05 07:35:29;;;;;;;;;;;21.40;72.80;;;;;;4992806;28;1269;-73
2021/07/05 07:37:55;;;;;;;;;;;21.40;72.80;;;;;;4992870;28;1160;-73
2021/07/05 07:40:40;;;;;;;;;;;21.40;72.90;;;;;;4974680;28;1172;-72
2021/07/05 07:43:06;;;;;;;;;;;21.40;72.90;;;;;;4992420;28;1240;-73
2021/07/05 07:45:32;;;;;;;;;;;21.50;73.00;;;;;;4992444;28;1351;-72
2021/07/05 07:47:57;;;;;;;;;;;21.40;73.00;;;;;;4975422;28;1293;-72
2021/07/05 07:50:23;;;;;;;;;;;21.40;73.00;;;;;;4974509;28;1150;-72
2021/07/05 07:52:48;;;;;;;;;;;21.40;73.00;;;;;;4992080;28;1954;-73
2021/07/05 07:55:14;;;;;;;;;;;21.40;73.00;;;;;;4975206;28;1228;-73
2021/07/05 07:57:40;;;;;;;;;;;21.40;73.00;;;;;;4992768;28;1174;-72
2021/07/05 08:00:09;;;;;;;;;;;21.40;73.00;;;;;;4974981;28;1054;-72
2021/07/05 08:02:34;;;;;;;;;;;21.40;73.00;;;;;;4992084;28;1027;-72
2021/07/05 08:05:00;;;;;;;;;;;21.40;72.90;;;;;;4974193;28;1285;-72
2021/07/05 08:07:25;;;;;;;;;;;21.40;72.90;;;;;;4992387;28;1093;-72
2021/07/05 08:09:53;;;;;;;;;;;21.40;72.80;;;;;;4975572;28;1129;-72
2021/07/05 08:12:18;;;;;;;;;;;21.40;72.70;;;;;;4992791;28;1914;-72
2021/07/05 08:14:44;;;;;;;;;;;21.40;72.90;;;;;;4991617;28;1093;-72
2021/07/05 08:17:09;;;;;;;;;;;21.40;73.00;;;;;;4992365;28;1363;-72
2021/07/05 08:19:36;;;;;;;;;;;21.40;72.90;;;;;;4992943;28;1129;-72
2021/07/05 08:22:01;;;;;;;;;;;21.40;73.10;;;;;;4975531;28;1753;-72
2021/07/05 08:24:27;;;;;;;;;;;21.40;73.20;;;;;;4991734;28;1434;-72
2021/07/05 08:26:52;;;;;;;;;;;21.40;73.50;;;;;;4975354;28;1702;-72
2021/07/05 08:29:18;;;;;;;;;;;21.40;73.50;;;;;;4992597;28;1678;-72
2021/07/05 08:31:43;;;;;;;;;;;21.40;73.50;;;;;;4992424;28;1906;-72
2021/07/05 08:34:08;;;;;;;;;;;21.40;73.60;;;;;;4974332;28;1618;-72
2021/07/05 08:36:36;;;;;;;;;;;21.40;73.70;;;;;;4992747;28;1425;-72
2021/07/05 08:39:01;;;;;;;;;;;21.40;73.80;;;;;;4992166;28;1240;-72
2021/07/05 08:41:26;;;;;;;;;;;21.40;73.80;;;;;;4992697;28;1543;-72
2021/07/05 08:43:53;;;;;;;;;;;21.40;73.90;;;;;;4974310;28;1399;-72
2021/07/05 08:46:21;;;;;;;;;;;21.40;73.80;;;;;;4975094;28;1505;-72
2021/07/05 08:48:46;;;;;;;;;;;21.50;73.80;;;;;;4992599;28;971;-72
2021/07/05 08:51:12;;;;;;;;;;;21.50;73.80;;;;;;4975129;28;1547;-72
2021/07/05 08:53:38;;;;;;;;;;;21.50;73.80;;;;;;4993893;28;1969;-72
2021/07/05 08:56:04;;;;;;;;;;;21.50;73.80;;;;;;4995761;28;1355;-72
2021/07/05 08:58:29;;;;;;;;;;;21.40;73.80;;;;;;4996175;28;1141;-72
2021/07/05 09:00:55;;;;;;;;;;;21.50;73.80;;;;;;4977692;28;1805;-72
2021/07/05 09:03:23;;;;;;;;;;;21.50;73.70;;;;;;4992750;28;1516;-72
2021/07/05 09:06:08;;;;;;;;;;;21.50;73.80;;;;;;4977879;28;1388;-72
2021/07/05 09:08:38;;;;;;;;;;;21.50;73.80;;;;;;4983779;28;1681;-69
2021/07/05 09:11:05;;;;;;;;;;;21.50;73.70;;;;;;4993924;28;1219;-70
2021/07/05 09:13:30;;;;;;;;;;;21.50;73.80;;;;;;4975936;28;1970;-70
2021/07/05 09:15:59;;;;;;;;;;;21.50;73.80;;;;;;4994525;28;1312;-69
2021/07/05 09:18:31;;;;;;;;;;;21.50;73.80;;;;;;4960998;28;1074;-74
2021/07/05 09:21:10;;;;;;;;;;;21.50;73.80;;;;;;4995352;28;1156;-73
2021/07/05 09:23:36;;;;;;;;;;;21.50;73.80;;;;;;4977321;28;1260;-74
2021/07/05 09:26:03;;;;;;;;;;;21.50;73.80;;;;;;4977951;28;1262;-73
2021/07/05 09:28:36;;;;;;;;;;;21.50;73.80;;;;;;4995183;28;1062;-74
2021/07/05 09:31:01;;;;;;;;;;;21.50;73.70;;;;;;4977561;28;1082;-73
2021/07/05 09:33:27;;;;;;;;;;;21.50;73.70;;;;;;4994584;28;1965;-73
2021/07/05 09:35:53;;;;;;;;;;;21.50;73.80;;;;;;4977926;28;1354;-73
2021/07/05 09:38:28;;;;;;;;;;;21.50;73.80;;;;;;4977474;28;1196;-73
2021/07/05 09:40:54;;;;;;;;;;;21.40;73.70;;;;;;4995089;28;1132;-73
2021/07/05 09:43:20;;;;;;;;;;;21.50;73.80;;;;;;4995193;28;1113;-73
2021/07/05 09:45:45;;;;;;;;;;;21.40;73.80;;;;;;4995031;28;1910;-73
2021/07/05 09:48:11;;;;;;;;;;;21.50;73.80;;;;;;4995691;28;1058;-73
2021/07/05 09:50:37;;;;;;;;;;;21.50;73.80;;;;;;4977369;28;1098;-74
2021/07/05 09:53:21;;;;;;;;;;;21.50;73.60;;;;;;4976156;28;1944;-73
2021/07/05 09:55:46;;;;;;;;;;;21.50;73.50;;;;;;4984039;28;1861;-74
2021/07/05 09:58:12;;;;;;;;;;;21.50;73.60;;;;;;4990636;28;1092;-73
2021/07/05 10:00:37;;;;;;;;;;;21.50;74.10;;;;;;4994454;28;1164;-73
2021/07/05 10:03:03;;;;;;;;;;;21.50;73.90;;;;;;4993597;28;1156;-73
2021/07/05 10:05:31;;;;;;;;;;;21.50;73.90;;;;;;4991527;28;2021;-73
2021/07/05 10:08:00;;;;;;;;;;;21.50;74.00;;;;;;4967478;28;1271;-73
2021/07/05 10:10:26;;;;;;;;;;;21.50;74.10;;;;;;4974056;28;1072;-73
2021/07/05 10:12:55;;;;;;;;;;;21.50;74.00;;;;;;4977038;28;1894;-73
2021/07/05 10:15:22;;;;;;;;;;;21.40;74.00;;;;;;4976387;28;1257;-73
2021/07/05 10:17:48;;;;;;;;;;;21.50;74.00;;;;;;4977139;28;1113;-73
2021/07/05 10:20:24;;;;;;;;;;;21.50;73.90;;;;;;4975575;28;1234;-73
2021/07/05 10:22:52;;;;;;;;;;;21.50;74.00;;;;;;4987059;28;1113;-73
2021/07/05 10:25:18;;;;;;;;;;;21.50;74.10;;;;;;4975337;28;1370;-73
2021/07/05 10:27:43;;;;;;;;;;;21.50;74.00;;;;;;4976958;28;1126;-73
2021/07/05 10:30:09;;;;;;;;;;;21.50;74.00;;;;;;4993868;28;1172;-73
2021/07/05 10:32:35;;;;;;;;;;;21.50;73.90;;;;;;4976495;28;1957;-74
2021/07/05 10:35:01;;;;;;;;;;;21.50;74.00;;;;;;4975828;28;1395;-73
2021/07/05 10:37:29;;;;;;;;;;;21.50;74.00;;;;;;4976177;28;1082;-73
2021/07/05 10:39:54;;;;;;;;;;;21.50;74.00;;;;;;4994074;28;1141;-73
2021/07/05 10:42:30;;;;;;;;;;;21.50;74.00;;;;;;4976695;28;1121;-73
2021/07/05 10:44:55;;;;;;;;;;;21.50;73.90;;;;;;4993003;28;1299;-73
2021/07/05 10:47:39;;;;;;;;;;;21.50;74.70;;;;;;4993310;28;1085;-73
2021/07/05 10:50:04;;;;;;;;;;;21.50;73.80;;;;;;4991728;28;2297;-73
2021/07/05 10:52:30;;;;;;;;;;;21.50;73.90;;;;;;4976013;28;1907;-73
2021/07/05 10:54:55;;;;;;;;;;;21.50;74.10;;;;;;4975143;28;1450;-73
2021/07/05 10:57:21;;;;;;;;;;;21.50;74.10;;;;;;4976364;28;1086;-73
2021/07/05 10:59:47;;;;;;;;;;;21.50;74.20;;;;;;4993471;28;1069;-73
2021/07/05 11:02:32;;;;;;;;;;;21.50;74.10;;;;;;4976080;28;1194;-73
2021/07/05 11:04:58;;;;;;;;;;;21.50;74.30;;;;;;4992521;28;1277;-73
2021/07/05 11:07:24;;;;;;;;;;;21.50;74.70;;;;;;4993293;28;1524;-73
2021/07/05 11:09:50;;;;;;;;;;;21.50;74.90;;;;;;4976459;28;1547;-73
2021/07/05 11:12:21;;;;;;;;;;;21.50;74.90;;;;;;4976007;28;1898;-73
2021/07/05 11:14:49;;;;;;;;;;;21.60;74.70;;;;;;4974538;28;1242;-73
2021/07/05 11:17:15;;;;;;;;;;;21.60;74.80;;;;;;4993104;28;1308;-73
2021/07/05 11:19:47;;;;;;;;;;;21.60;75.00;;;;;;4992780;28;1077;-73
2021/07/05 11:22:20;;;;;;;;;;;21.60;75.20;;;;;;4975795;28;1086;-73
2021/07/05 11:24:47;;;;;;;;;;;21.60;75.60;;;;;;4991061;28;1663;-73
2021/07/05 11:27:25;;;;;;;;;;;21.60;75.60;;;;;;4977331;28;1553;-73
2021/07/05 11:29:50;;;;;;;;;;;21.60;75.20;;;;;;4990754;28;1819;-73
2021/07/05 11:32:32;;;;;;;;;;;21.60;75.40;;;;;;4989268;28;1981;-73
2021/07/05 11:34:57;;;;;;;;;;;21.60;75.50;;;;;;4974716;28;1405;-73
2021/07/05 11:37:23;;;;;;;;;;;21.60;75.60;;;;;;4990398;28;1237;-73
2021/07/05 11:39:50;;;;;;;;;;;21.60;75.80;;;;;;4992818;28;1116;-73
2021/07/05 11:42:19;;;;;;;;;;;21.60;75.80;;;;;;4975784;28;1129;-73
2021/07/05 11:44:48;;;;;;;;;;;21.60;75.90;;;;;;4975025;28;1086;-73
2021/07/05 11:47:32;;;;;;;;;;;21.60;75.80;;;;;;4993014;28;1279;-73
2021/07/05 11:50:16;;;;;;;;;;;21.60;75.90;;;;;;4989677;28;1296;-73
2021/07/05 11:52:44;;;;;;;;;;;21.60;76.00;;;;;;4992820;28;1965;-73
2021/07/05 11:55:10;;;;;;;;;;;21.60;75.90;;;;;;4975273;28;1352;-72
2021/07/05 11:57:35;;;;;;;;;;;21.60;76.10;;;;;;4993065;28;1070;-72
2021/07/05 12:00:05;;;;;;;;;;;21.60;75.70;;;;;;4992545;28;1153;-72
2021/07/05 12:02:30;;;;;;;;;;;21.60;75.30;;;;;;4975182;28;1105;-72
2021/07/05 12:05:03;;;;;;;;;;;21.60;75.50;;;;;;4992868;28;1361;-71
2021/07/05 12:07:29;;;;;;;;;;;21.60;75.80;;;;;;4992647;28;1104;-73
2021/07/05 12:09:54;;;;;;;;;;;21.60;76.00;;;;;;4992700;28;1066;-73
2021/07/05 12:12:22;;;;;;;;;;;21.60;76.20;;;;;;4987071;28;1910;-73
2021/07/05 12:14:48;;;;;;;;;;;21.60;76.20;;;;;;4989837;28;1085;-74
2021/07/05 12:17:14;;;;;;;;;;;21.60;76.40;;;;;;4984235;28;1720;-73
2021/07/05 12:19:42;;;;;;;;;;;21.60;76.20;;;;;;4975060;28;1066;-72
2021/07/05 12:22:09;;;;;;;;;;;21.60;76.30;;;;;;4974830;28;1288;-72
2021/07/05 12:24:44;;;;;;;;;;;21.60;76.40;;;;;;4992063;28;1046;-72
2021/07/05 12:27:10;;;;;;;;;;;21.60;76.50;;;;;;4976530;28;1204;-72
2021/07/05 12:29:38;;;;;;;;;;;21.60;76.30;;;;;;4978476;28;1134;-72
2021/07/05 12:32:05;;;;;;;;;;;21.60;76.40;;;;;;4979511;28;1983;-72
2021/07/05 12:34:34;;;;;;;;;;;21.60;76.40;;;;;;4995849;28;1085;-72
2021/07/05 12:37:00;;;;;;;;;;;21.60;76.40;;;;;;4978861;28;1209;-72
2021/07/05 12:39:25;;;;;;;;;;;21.60;76.50;;;;;;4995938;28;1061;-71
2021/07/05 12:41:50;;;;;;;;;;;21.60;76.30;;;;;;4995847;28;1062;-71
2021/07/05 12:44:16;;;;;;;;;;;21.60;76.40;;;;;;4978356;28;1094;-72
2021/07/05 12:46:41;;;;;;;;;;;21.60;76.20;;;;;;4978953;28;1215;-71
2021/07/05 12:49:07;;;;;;;;;;;21.60;76.40;;;;;;4996113;28;1110;-72
2021/07/05 12:51:32;;;;;;;;;;;21.60;76.20;;;;;;4978090;28;1082;-72
2021/07/05 12:53:58;;;;;;;;;;;21.60;76.20;;;;;;4995411;28;1903;-73
2021/07/05 12:56:30;;;;;;;;;;;21.60;76.50;;;;;;4995498;28;1279;-72
2021/07/05 12:58:56;;;;;;;;;;;21.60;76.50;;;;;;4995907;28;1077;-72
2021/07/05 13:01:43;;;;;;;;;;;21.60;76.50;;;;;;4978369;28;1137;-72
2021/07/05 13:04:10;;;;;;;;;;;21.60;76.00;;;;;;4994749;28;1161;-72
2021/07/05 13:06:40;;;;;;;;;;;21.60;75.90;;;;;;4995521;28;1212;-72
2021/07/05 13:09:06;;;;;;;;;;;21.60;75.70;;;;;;4978414;28;927;-73
2021/07/05 13:11:40;;;;;;;;;;;21.70;75.60;;;;;;4977984;28;1180;-73
2021/07/05 13:14:07;;;;;;;;;;;21.60;75.60;;;;;;4965139;28;1906;-73
2021/07/05 13:16:32;;;;;;;;;;;21.60;75.50;;;;;;4977900;28;1436;-72
2021/07/05 13:19:06;;;;;;;;;;;21.60;75.80;;;;;;4978316;28;1070;-73
2021/07/05 13:21:35;;;;;;;;;;;21.60;75.90;;;;;;4978004;28;1074;-72
2021/07/05 13:24:21;;;;;;;;;;;21.60;76.20;;;;;;4977523;28;1128;-73
2021/07/05 13:26:46;;;;;;;;;;;21.60;76.20;;;;;;4977409;28;1299;-72
2021/07/05 13:29:19;;;;;;;;;;;21.60;76.30;;;;;;4995671;28;1058;-73
2021/07/05 13:31:45;;;;;;;;;;;21.60;76.20;;;;;;4994877;28;1090;-73
2021/07/05 13:34:29;;;;;;;;;;;21.60;76.30;;;;;;4977180;28;2049;-73
2021/07/05 13:36:54;;;;;;;;;;;21.60;76.40;;;;;;4994782;28;1287;-72
2021/07/05 13:39:20;;;;;;;;;;;21.60;76.70;;;;;;4994873;28;1152;-72
2021/07/05 13:41:45;;;;;;;;;;;21.60;76.50;;;;;;4995290;28;1195;-72
2021/07/05 13:44:11;;;;;;;;;;;21.60;76.60;;;;;;4995074;28;1062;-74
2021/07/05 13:46:36;;;;;;;;;;;21.60;76.70;;;;;;4995109;28;1308;-74
2021/07/05 13:49:11;;;;;;;;;;;21.60;76.90;;;;;;4977573;28;1133;-73
2021/07/05 13:51:37;;;;;;;;;;;21.60;77.00;;;;;;4977686;28;1059;-74
2021/07/05 13:54:02;;;;;;;;;;;21.60;77.00;;;;;;4994029;28;1894;-72
2021/07/05 13:56:30;;;;;;;;;;;21.60;77.10;;;;;;4994737;28;1209;-73
2021/07/05 13:58:56;;;;;;;;;;;21.60;77.10;;;;;;4994538;28;1148;-74
2021/07/05 14:01:24;;;;;;;;;;;21.70;77.10;;;;;;4994323;28;1124;-73
2021/07/05 14:03:49;;;;;;;;;;;21.70;77.40;;;;;;4976807;28;1062;-73
2021/07/05 14:06:16;;;;;;;;;;;21.70;77.40;;;;;;5003360;28;1441;-73
2021/07/05 14:08:41;;;;;;;;;;;21.60;77.40;;;;;;4960792;28;1192;-72
2021/07/05 14:11:09;;;;;;;;;;;21.60;77.60;;;;;;4977062;28;1188;-72
2021/07/05 14:13:38;;;;;;;;;;;21.60;77.50;;;;;;4993731;28;1954;-72
2021/07/05 14:16:04;;;;;;;;;;;21.70;77.70;;;;;;4976920;28;1273;-72
2021/07/05 14:18:30;;;;;;;;;;;21.70;77.70;;;;;;4976901;28;1148;-72
2021/07/05 14:20:55;;;;;;;;;;;21.70;77.60;;;;;;4982248;28;1732;-70
2021/07/05 14:23:21;;;;;;;;;;;21.70;77.60;;;;;;4974524;28;1133;-72
2021/07/05 14:25:47;;;;;;;;;;;21.70;77.30;;;;;;4976051;28;1288;-73
2021/07/05 14:28:13;;;;;;;;;;;21.70;77.70;;;;;;4975971;28;1086;-70
2021/07/05 14:30:38;;;;;;;;;;;21.70;77.60;;;;;;4975493;28;1082;-71